sensor_id;sensor_type;location;lat;lon;timestamp;temperature;humidity
29321;DHT22;16323;51.130;6.612;2023-03-23T00:01:59;17.70;74.10
29321;DHT22;16323;51.130;6.612;2023-03-23T00:04:26;17.70;74.10
29321;DHT22;16323;51.130;6.612;2023-03-23T00:06:55;17.70;74.20
29321;DHT22;16323;51.130;6.612;2023-03-23T00:09:22;17.70;74.20
29321;DHT22;16323;51.130;6.612;2023-03-23T00:11:51;17.70;74.30
29321;DHT22;16323;51.130;6.612;2023-03-23T00:14:22;17.70;74.30
29321;DHT22;16323;51.130;6.612;2023-03-23T00:16:50;17.70;74.20
29321;DHT22;16323;51.130;6.612;2023-03-23T00:19:17;17.70;74.20
29321;DHT22;16323;51.130;6.612;2023-03-23T00:21:45;17.70;74.30
29321;DHT22;16323;51.130;6.612;2023-03-23T00:24:14;17.70;74.20
29321;DHT22;16323;51.130;6.612;2023-03-23T00:26:44;17.70;74.20
29321;DHT22;16323;51.130;6.612;2023-03-23T00:29:15;17.70;74.30
29321;DHT22;16323;51.130;6.612;2023-03-23T00:31:43;17.70;74.30
29321;DHT22;16323;51.130;6.612;2023-03-23T00:34:12;17.70;74.20
29321;DHT22;16323;51.130;6.612;2023-03-23T00:36:45;17.70;74.20
29321;DHT22;16323;51.130;6.612;2023-03-23T00:39:12;17.70;74.20
29321;DHT22;16323;51.130;6.612;2023-03-23T00:41:41;17.70;74.00
29321;DHT22;16323;51.130;6.612;2023-03-23T00:44:08;17.70;74.10
29321;DHT22;16323;51.130;6.612;2023-03-23T00:46:36;17.70;74.00
29321;DHT22;16323;51.130;6.612;2023-03-23T00:49:10;17.70;74.00
29321;DHT22;16323;51.130;6.612;2023-03-23T00:51:37;17.70;73.90
29321;DHT22;16323;51.130;6.612;2023-03-23T00:54:04;17.70;73.90
29321;DHT22;16323;51.130;6.612;2023-03-23T00:56:31;17.70;73.90
29321;DHT22;16323;51.130;6.612;2023-03-23T00:58:58;17.80;74.00
29321;DHT22;16323;51.130;6.612;2023-03-23T01:01:25;17.70;74.00
29321;DHT22;16323;51.130;6.612;2023-03-23T01:03:53;17.70;74.10
29321;DHT22;16323;51.130;6.612;2023-03-23T01:06:27;17.70;74.00
29321;DHT22;16323;51.130;6.612;2023-03-23T01:08:56;17.70;73.70
29321;DHT22;16323;51.130;6.612;2023-03-23T01:11:23;17.70;73.30
29321;DHT22;16323;51.130;6.612;2023-03-23T01:13:50;17.70;73.00
29321;DHT22;16323;51.130;6.612;2023-03-23T01:16:18;17.70;73.20
29321;DHT22;16323;51.130;6.612;2023-03-23T01:18:44;17.70;72.90
29321;DHT22;16323;51.130;6.612;2023-03-23T01:21:14;17.70;72.70
29321;DHT22;16323;51.130;6.612;2023-03-23T01:23:42;17.60;72.80
29321;DHT22;16323;51.130;6.612;2023-03-23T01:26:10;17.70;73.10
29321;DHT22;16323;51.130;6.612;2023-03-23T01:28:38;17.70;73.30
29321;DHT22;16323;51.130;6.612;2023-03-23T01:31:07;17.80;73.40
29321;DHT22;16323;51.130;6.612;2023-03-23T01:33:34;17.70;73.40
29321;DHT22;16323;51.130;6.612;2023-03-23T01:36:04;17.70;73.50
29321;DHT22;16323;51.130;6.612;2023-03-23T01:38:32;17.80;73.60
29321;DHT22;16323;51.130;6.612;2023-03-23T01:40:59;17.80;73.60
29321;DHT22;16323;51.130;6.612;2023-03-23T01:43:26;17.80;73.70
29321;DHT22;16323;51.130;6.612;2023-03-23T01:45:54;17.80;73.80
29321;DHT22;16323;51.130;6.612;2023-03-23T01:48:23;17.80;73.70
29321;DHT22;16323;51.130;6.612;2023-03-23T01:50:55;17.80;73.70
29321;DHT22;16323;51.130;6.612;2023-03-23T01:53:26;17.80;73.80
29321;DHT22;16323;51.130;6.612;2023-03-23T01:55:57;17.70;74.80
29321;DHT22;16323;51.130;6.612;2023-03-23T01:58:26;17.80;74.00
29321;DHT22;16323;51.130;6.612;2023-03-23T02:00:54;17.80;74.10
29321;DHT22;16323;51.130;6.612;2023-03-23T02:03:22;17.80;74.20
29321;DHT22;16323;51.130;6.612;2023-03-23T02:05:50;17.80;74.20
29321;DHT22;16323;51.130;6.612;2023-03-23T02:08:18;17.80;74.30
29321;DHT22;16323;51.130;6.612;2023-03-23T02:10:45;17.80;74.30
29321;DHT22;16323;51.130;6.612;2023-03-23T02:13:13;17.80;74.40
29321;DHT22;16323;51.130;6.612;2023-03-23T02:15:47;17.80;74.50
29321;DHT22;16323;51.130;6.612;2023-03-23T02:18:29;17.70;74.40
29321;DHT22;16323;51.130;6.612;2023-03-23T02:21:34;17.80;74.50
29321;DHT22;16323;51.130;6.612;2023-03-23T02:27:09;17.70;74.40
29321;DHT22;16323;51.130;6.612;2023-03-23T02:30:15;17.80;74.50
29321;DHT22;16323;51.130;6.612;2023-03-23T02:33:06;17.80;74.40
29321;DHT22;16323;51.130;6.612;2023-03-23T02:35:36;17.80;74.40
29321;DHT22;16323;51.130;6.612;2023-03-23T02:38:08;17.80;74.40
29321;DHT22;16323;51.130;6.612;2023-03-23T02:40:39;17.80;74.30
29321;DHT22;16323;51.130;6.612;2023-03-23T02:43:10;17.80;74.30
29321;DHT22;16323;51.130;6.612;2023-03-23T02:45:38;17.80;74.30
29321;DHT22;16323;51.130;6.612;2023-03-23T02:48:07;17.80;74.30
29321;DHT22;16323;51.130;6.612;2023-03-23T02:50:36;17.80;74.20
29321;DHT22;16323;51.130;6.612;2023-03-23T02:53:06;17.80;74.30
29321;DHT22;16323;51.130;6.612;2023-03-23T02:55:34;17.80;74.30
29321;DHT22;16323;51.130;6.612;2023-03-23T02:58:06;17.80;74.40
29321;DHT22;16323;51.130;6.612;2023-03-23T03:00:32;17.80;74.40
29321;DHT22;16323;51.130;6.612;2023-03-23T03:03:00;17.80;74.50
29321;DHT22;16323;51.130;6.612;2023-03-23T03:05:36;18.40;74.90
29321;DHT22;16323;51.130;6.612;2023-03-23T03:08:13;17.80;74.50
29321;DHT22;16323;51.130;6.612;2023-03-23T03:10:48;17.80;74.50
29321;DHT22;16323;51.130;6.612;2023-03-23T03:13:23;17.80;74.50
29321;DHT22;16323;51.130;6.612;2023-03-23T03:15:57;17.80;74.50
29321;DHT22;16323;51.130;6.612;2023-03-23T03:18:28;17.70;75.40
29321;DHT22;16323;51.130;6.612;2023-03-23T03:21:01;17.80;74.60
29321;DHT22;16323;51.130;6.612;2023-03-23T03:23:29;17.80;74.40
29321;DHT22;16323;51.130;6.612;2023-03-23T03:25:58;18.40;75.00
29321;DHT22;16323;51.130;6.612;2023-03-23T03:28:26;17.80;74.50
29321;DHT22;16323;51.130;6.612;2023-03-23T03:30:56;17.80;74.50
29321;DHT22;16323;51.130;6.612;2023-03-23T03:33:27;17.80;74.50
29321;DHT22;16323;51.130;6.612;2023-03-23T03:35:58;17.70;74.30
29321;DHT22;16323;51.130;6.612;2023-03-23T03:38:26;17.80;74.30
29321;DHT22;16323;51.130;6.612;2023-03-23T03:40:53;17.90;74.50
29321;DHT22;16323;51.130;6.612;2023-03-23T03:43:20;17.80;74.30
29321;DHT22;16323;51.130;6.612;2023-03-23T03:45:47;17.80;74.30
29321;DHT22;16323;51.130;6.612;2023-03-23T03:48:14;17.80;74.50
29321;DHT22;16323;51.130;6.612;2023-03-23T03:50:41;17.80;74.30
29321;DHT22;16323;51.130;6.612;2023-03-23T03:53:09;17.80;74.40
29321;DHT22;16323;51.130;6.612;2023-03-23T03:55:36;17.80;74.40
29321;DHT22;16323;51.130;6.612;2023-03-23T03:58:04;17.80;74.30
29321;DHT22;16323;51.130;6.612;2023-03-23T04:00:32;17.80;74.40
29321;DHT22;16323;51.130;6.612;2023-03-23T04:02:59;17.80;74.40
29321;DHT22;16323;51.130;6.612;2023-03-23T04:05:26;17.80;74.40
29321;DHT22;16323;51.130;6.612;2023-03-23T04:07:55;17.80;74.40
29321;DHT22;16323;51.130;6.612;2023-03-23T04:10:29;17.80;74.40
29321;DHT22;16323;51.130;6.612;2023-03-23T04:12:56;17.80;74.30
29321;DHT22;16323;51.130;6.612;2023-03-23T04:15:23;17.80;74.40
29321;DHT22;16323;51.130;6.612;2023-03-23T04:17:50;17.80;74.40
29321;DHT22;16323;51.130;6.612;2023-03-23T04:20:18;17.80;74.40
29321;DHT22;16323;51.130;6.612;2023-03-23T04:22:45;17.80;74.30
29321;DHT22;16323;51.130;6.612;2023-03-23T04:25:16;17.80;74.30
29321;DHT22;16323;51.130;6.612;2023-03-23T04:27:47;17.80;74.20
29321;DHT22;16323;51.130;6.612;2023-03-23T04:30:18;17.80;74.20
29321;DHT22;16323;51.130;6.612;2023-03-23T04:32:45;17.80;74.30
29321;DHT22;16323;51.130;6.612;2023-03-23T04:35:16;17.80;74.20
29321;DHT22;16323;51.130;6.612;2023-03-23T04:37:44;17.80;74.20
29321;DHT22;16323;51.130;6.612;2023-03-23T04:40:12;18.10;74.50
29321;DHT22;16323;51.130;6.612;2023-03-23T04:42:41;17.80;74.20
29321;DHT22;16323;51.130;6.612;2023-03-23T04:45:13;17.80;74.20
29321;DHT22;16323;51.130;6.612;2023-03-23T04:47:41;17.80;74.20
29321;DHT22;16323;51.130;6.612;2023-03-23T04:50:14;17.80;74.20
29321;DHT22;16323;51.130;6.612;2023-03-23T04:52:42;17.80;74.20
29321;DHT22;16323;51.130;6.612;2023-03-23T04:55:10;17.80;74.30
29321;DHT22;16323;51.130;6.612;2023-03-23T04:57:38;17.80;74.20
29321;DHT22;16323;51.130;6.612;2023-03-23T05:00:06;17.80;74.30
29321;DHT22;16323;51.130;6.612;2023-03-23T05:02:35;17.80;74.30
29321;DHT22;16323;51.130;6.612;2023-03-23T05:05:02;17.70;74.20
29321;DHT22;16323;51.130;6.612;2023-03-23T05:07:29;17.80;74.30
29321;DHT22;16323;51.130;6.612;2023-03-23T05:09:56;17.80;74.30
29321;DHT22;16323;51.130;6.612;2023-03-23T05:12:23;17.80;74.30
29321;DHT22;16323;51.130;6.612;2023-03-23T05:14:50;17.80;74.30
29321;DHT22;16323;51.130;6.612;2023-03-23T05:17:17;17.80;74.30
29321;DHT22;16323;51.130;6.612;2023-03-23T05:19:45;17.80;74.20
29321;DHT22;16323;51.130;6.612;2023-03-23T05:22:13;17.80;74.20
29321;DHT22;16323;51.130;6.612;2023-03-23T05:24:40;17.80;74.10
29321;DHT22;16323;51.130;6.612;2023-03-23T05:27:08;17.80;74.20
29321;DHT22;16323;51.130;6.612;2023-03-23T05:29:36;17.80;74.20
29321;DHT22;16323;51.130;6.612;2023-03-23T05:32:07;17.80;74.20
29321;DHT22;16323;51.130;6.612;2023-03-23T05:34:34;17.80;74.20
29321;DHT22;16323;51.130;6.612;2023-03-23T05:37:03;17.80;74.20
29321;DHT22;16323;51.130;6.612;2023-03-23T05:39:30;17.80;74.10
29321;DHT22;16323;51.130;6.612;2023-03-23T05:41:58;17.80;74.10
29321;DHT22;16323;51.130;6.612;2023-03-23T05:44:25;17.80;74.10
29321;DHT22;16323;51.130;6.612;2023-03-23T05:46:51;17.80;74.10
29321;DHT22;16323;51.130;6.612;2023-03-23T05:49:19;17.80;74.00
29321;DHT22;16323;51.130;6.612;2023-03-23T05:51:46;17.70;74.00
29321;DHT22;16323;51.130;6.612;2023-03-23T05:54:14;17.80;74.10
29321;DHT22;16323;51.130;6.612;2023-03-23T05:56:41;17.80;74.10
29321;DHT22;16323;51.130;6.612;2023-03-23T05:59:08;17.80;74.00
29321;DHT22;16323;51.130;6.612;2023-03-23T06:01:35;17.80;74.00
29321;DHT22;16323;51.130;6.612;2023-03-23T06:04:02;17.80;74.00
29321;DHT22;16323;51.130;6.612;2023-03-23T06:06:30;17.80;74.00
29321;DHT22;16323;51.130;6.612;2023-03-23T06:08:58;17.80;74.10
29321;DHT22;16323;51.130;6.612;2023-03-23T06:11:27;17.70;74.20
29321;DHT22;16323;51.130;6.612;2023-03-23T06:13:54;17.70;74.30
29321;DHT22;16323;51.130;6.612;2023-03-23T06:16:21;17.70;74.40
29321;DHT22;16323;51.130;6.612;2023-03-23T06:18:48;17.70;74.50
29321;DHT22;16323;51.130;6.612;2023-03-23T06:21:15;17.70;74.50
29321;DHT22;16323;51.130;6.612;2023-03-23T06:23:43;17.70;74.50
29321;DHT22;16323;51.130;6.612;2023-03-23T06:26:13;17.70;74.50
29321;DHT22;16323;51.130;6.612;2023-03-23T06:28:43;17.70;74.40
29321;DHT22;16323;51.130;6.612;2023-03-23T06:31:10;17.70;74.30
29321;DHT22;16323;51.130;6.612;2023-03-23T06:33:38;17.90;75.60
29321;DHT22;16323;51.130;6.612;2023-03-23T06:36:07;17.70;74.30
29321;DHT22;16323;51.130;6.612;2023-03-23T06:38:34;17.80;74.30
29321;DHT22;16323;51.130;6.612;2023-03-23T06:41:01;17.70;74.20
29321;DHT22;16323;51.130;6.612;2023-03-23T06:43:28;17.70;74.20
29321;DHT22;16323;51.130;6.612;2023-03-23T06:45:58;17.70;74.30
29321;DHT22;16323;51.130;6.612;2023-03-23T06:48:25;17.70;74.20
29321;DHT22;16323;51.130;6.612;2023-03-23T06:50:52;17.70;74.20
29321;DHT22;16323;51.130;6.612;2023-03-23T06:53:19;17.70;74.20
29321;DHT22;16323;51.130;6.612;2023-03-23T06:55:46;17.70;74.00
29321;DHT22;16323;51.130;6.612;2023-03-23T06:58:13;17.70;74.00
29321;DHT22;16323;51.130;6.612;2023-03-23T07:00:40;17.70;74.10
29321;DHT22;16323;51.130;6.612;2023-03-23T07:03:08;17.70;74.00
29321;DHT22;16323;51.130;6.612;2023-03-23T07:05:35;17.70;74.00
29321;DHT22;16323;51.130;6.612;2023-03-23T07:08:02;17.70;74.00
29321;DHT22;16323;51.130;6.612;2023-03-23T07:10:29;17.80;74.00
29321;DHT22;16323;51.130;6.612;2023-03-23T07:12:57;17.80;74.00
29321;DHT22;16323;51.130;6.612;2023-03-23T07:15:24;17.80;74.00
29321;DHT22;16323;51.130;6.612;2023-03-23T07:17:52;17.80;73.90
29321;DHT22;16323;51.130;6.612;2023-03-23T07:20:21;17.80;74.00
29321;DHT22;16323;51.130;6.612;2023-03-23T07:22:48;17.80;73.90
29321;DHT22;16323;51.130;6.612;2023-03-23T07:25:15;17.80;73.80
29321;DHT22;16323;51.130;6.612;2023-03-23T07:27:44;17.80;73.80
29321;DHT22;16323;51.130;6.612;2023-03-23T07:30:12;17.80;73.80
29321;DHT22;16323;51.130;6.612;2023-03-23T07:32:39;17.80;73.80
29321;DHT22;16323;51.130;6.612;2023-03-23T07:35:07;17.80;73.80
29321;DHT22;16323;51.130;6.612;2023-03-23T07:37:36;17.80;73.80
29321;DHT22;16323;51.130;6.612;2023-03-23T07:40:03;17.70;74.00
29321;DHT22;16323;51.130;6.612;2023-03-23T07:42:40;17.70;74.10
29321;DHT22;16323;51.130;6.612;2023-03-23T07:45:08;17.70;74.20
29321;DHT22;16323;51.130;6.612;2023-03-23T07:47:35;17.70;74.20
29321;DHT22;16323;51.130;6.612;2023-03-23T07:50:02;17.70;74.20
29321;DHT22;16323;51.130;6.612;2023-03-23T07:52:29;17.70;75.20
29321;DHT22;16323;51.130;6.612;2023-03-23T07:54:58;17.70;74.30
29321;DHT22;16323;51.130;6.612;2023-03-23T07:57:26;17.70;74.20
29321;DHT22;16323;51.130;6.612;2023-03-23T07:59:53;17.70;74.30
29321;DHT22;16323;51.130;6.612;2023-03-23T08:02:21;17.70;74.20
29321;DHT22;16323;51.130;6.612;2023-03-23T08:04:48;17.70;74.20
29321;DHT22;16323;51.130;6.612;2023-03-23T08:07:15;17.70;74.10
29321;DHT22;16323;51.130;6.612;2023-03-23T08:09:42;17.70;74.20
29321;DHT22;16323;51.130;6.612;2023-03-23T08:12:10;17.70;74.10
29321;DHT22;16323;51.130;6.612;2023-03-23T08:14:37;17.70;74.20
29321;DHT22;16323;51.130;6.612;2023-03-23T08:17:05;17.70;74.20
29321;DHT22;16323;51.130;6.612;2023-03-23T08:19:32;17.70;74.10
29321;DHT22;16323;51.130;6.612;2023-03-23T08:22:02;17.70;74.20
29321;DHT22;16323;51.130;6.612;2023-03-23T08:24:29;17.70;74.20
29321;DHT22;16323;51.130;6.612;2023-03-23T08:26:56;17.70;74.20
29321;DHT22;16323;51.130;6.612;2023-03-23T08:29:24;17.70;74.20
29321;DHT22;16323;51.130;6.612;2023-03-23T08:31:51;17.70;74.10
29321;DHT22;16323;51.130;6.612;2023-03-23T08:34:18;17.70;74.20
29321;DHT22;16323;51.130;6.612;2023-03-23T08:36:45;17.70;74.00
29321;DHT22;16323;51.130;6.612;2023-03-23T08:39:13;17.70;74.20
29321;DHT22;16323;51.130;6.612;2023-03-23T08:41:40;17.70;74.20
29321;DHT22;16323;51.130;6.612;2023-03-23T08:44:07;18.20;74.70
29321;DHT22;16323;51.130;6.612;2023-03-23T08:46:35;17.70;74.10
29321;DHT22;16323;51.130;6.612;2023-03-23T08:49:02;17.70;75.00
29321;DHT22;16323;51.130;6.612;2023-03-23T08:51:29;17.70;74.00
29321;DHT22;16323;51.130;6.612;2023-03-23T08:53:56;17.70;74.00
29321;DHT22;16323;51.130;6.612;2023-03-23T08:56:24;17.70;73.90
29321;DHT22;16323;51.130;6.612;2023-03-23T08:58:51;17.70;73.80
29321;DHT22;16323;51.130;6.612;2023-03-23T09:01:18;17.70;73.80
29321;DHT22;16323;51.130;6.612;2023-03-23T09:03:46;17.70;73.80
29321;DHT22;16323;51.130;6.612;2023-03-23T09:06:13;17.70;73.60
29321;DHT22;16323;51.130;6.612;2023-03-23T09:08:40;17.70;73.50
29321;DHT22;16323;51.130;6.612;2023-03-23T09:11:08;17.70;73.70
29321;DHT22;16323;51.130;6.612;2023-03-23T09:13:37;17.70;73.70
29321;DHT22;16323;51.130;6.612;2023-03-23T09:16:04;17.80;73.70
29321;DHT22;16323;51.130;6.612;2023-03-23T09:18:32;17.80;73.40
29321;DHT22;16323;51.130;6.612;2023-03-23T09:21:02;17.80;73.30
29321;DHT22;16323;51.130;6.612;2023-03-23T09:23:30;17.90;73.10
29321;DHT22;16323;51.130;6.612;2023-03-23T09:25:57;17.90;72.80
29321;DHT22;16323;51.130;6.612;2023-03-23T09:28:23;18.00;72.80
29321;DHT22;16323;51.130;6.612;2023-03-23T09:30:50;18.00;72.80
29321;DHT22;16323;51.130;6.612;2023-03-23T09:33:17;17.90;72.80
29321;DHT22;16323;51.130;6.612;2023-03-23T09:35:44;17.90;72.80
29321;DHT22;16323;51.130;6.612;2023-03-23T09:38:13;18.00;73.00
29321;DHT22;16323;51.130;6.612;2023-03-23T09:40:45;18.00;73.00
29321;DHT22;16323;51.130;6.612;2023-03-23T09:43:35;18.00;72.60
29321;DHT22;16323;51.130;6.612;2023-03-23T09:46:20;18.00;71.50
29321;DHT22;16323;51.130;6.612;2023-03-23T09:48:52;18.00;71.20
29321;DHT22;16323;51.130;6.612;2023-03-23T09:51:31;18.00;71.20
29321;DHT22;16323;51.130;6.612;2023-03-23T09:54:03;18.00;71.40
29321;DHT22;16323;51.130;6.612;2023-03-23T09:56:33;17.90;72.40
29321;DHT22;16323;51.130;6.612;2023-03-23T09:59:04;18.00;71.60
29321;DHT22;16323;51.130;6.612;2023-03-23T10:01:36;18.30;72.00
29321;DHT22;16323;51.130;6.612;2023-03-23T10:04:10;18.00;71.70
29321;DHT22;16323;51.130;6.612;2023-03-23T10:06:39;18.00;71.70
29321;DHT22;16323;51.130;6.612;2023-03-23T10:09:15;18.00;71.90
29321;DHT22;16323;51.130;6.612;2023-03-23T10:11:53;18.10;72.10
29321;DHT22;16323;51.130;6.612;2023-03-23T10:14:34;18.00;72.20
29321;DHT22;16323;51.130;6.612;2023-03-23T10:17:12;18.10;72.30
29321;DHT22;16323;51.130;6.612;2023-03-23T10:19:46;18.10;72.40
29321;DHT22;16323;51.130;6.612;2023-03-23T10:25:41;18.10;72.60
29321;DHT22;16323;51.130;6.612;2023-03-23T10:28:11;18.00;72.70
29321;DHT22;16323;51.130;6.612;2023-03-23T10:30:41;18.00;72.90
29321;DHT22;16323;51.130;6.612;2023-03-23T10:33:14;18.00;73.00
29321;DHT22;16323;51.130;6.612;2023-03-23T10:35:45;18.00;73.10
29321;DHT22;16323;51.130;6.612;2023-03-23T10:38:15;18.00;73.10
29321;DHT22;16323;51.130;6.612;2023-03-23T10:40:49;18.00;73.30
29321;DHT22;16323;51.130;6.612;2023-03-23T10:43:18;18.00;73.30
29321;DHT22;16323;51.130;6.612;2023-03-23T10:45:49;18.00;73.40
29321;DHT22;16323;51.130;6.612;2023-03-23T10:48:30;18.00;73.50
29321;DHT22;16323;51.130;6.612;2023-03-23T10:50:59;18.00;73.60
29321;DHT22;16323;51.130;6.612;2023-03-23T10:53:31;17.90;73.80
29321;DHT22;16323;51.130;6.612;2023-03-23T10:56:00;17.90;73.90
29321;DHT22;16323;51.130;6.612;2023-03-23T10:58:29;18.00;73.80
29321;DHT22;16323;51.130;6.612;2023-03-23T11:00:57;18.00;74.10
29321;DHT22;16323;51.130;6.612;2023-03-23T11:03:40;17.90;74.20
29321;DHT22;16323;51.130;6.612;2023-03-23T11:06:08;17.90;74.20
29321;DHT22;16323;51.130;6.612;2023-03-23T11:08:47;17.90;74.40
29321;DHT22;16323;51.130;6.612;2023-03-23T11:11:18;17.90;74.50
29321;DHT22;16323;51.130;6.612;2023-03-23T11:13:48;17.90;74.60
29321;DHT22;16323;51.130;6.612;2023-03-23T11:16:23;18.30;74.90
29321;DHT22;16323;51.130;6.612;2023-03-23T11:18:51;17.90;75.60
29321;DHT22;16323;51.130;6.612;2023-03-23T11:21:21;17.90;74.70
29321;DHT22;16323;51.130;6.612;2023-03-23T11:23:50;18.00;74.90
29321;DHT22;16323;51.130;6.612;2023-03-23T11:26:21;17.90;75.00
29321;DHT22;16323;51.130;6.612;2023-03-23T11:28:53;17.90;75.20
29321;DHT22;16323;51.130;6.612;2023-03-23T11:31:22;17.90;75.30
29321;DHT22;16323;51.130;6.612;2023-03-23T11:33:53;17.90;75.10
29321;DHT22;16323;51.130;6.612;2023-03-23T11:36:30;17.90;75.30
29321;DHT22;16323;51.130;6.612;2023-03-23T11:38:57;17.90;75.40
29321;DHT22;16323;51.130;6.612;2023-03-23T11:41:32;17.90;75.40
29321;DHT22;16323;51.130;6.612;2023-03-23T11:44:09;17.90;75.40
29321;DHT22;16323;51.130;6.612;2023-03-23T11:46:44;17.90;75.60
29321;DHT22;16323;51.130;6.612;2023-03-23T11:49:20;17.90;75.40
29321;DHT22;16323;51.130;6.612;2023-03-23T11:51:51;17.90;75.50
29321;DHT22;16323;51.130;6.612;2023-03-23T11:54:26;17.90;75.60
29321;DHT22;16323;51.130;6.612;2023-03-23T11:56:56;17.90;75.40
29321;DHT22;16323;51.130;6.612;2023-03-23T11:59:28;18.00;75.60
29321;DHT22;16323;51.130;6.612;2023-03-23T12:02:04;18.00;75.70
29321;DHT22;16323;51.130;6.612;2023-03-23T12:04:58;17.90;76.00
29321;DHT22;16323;51.130;6.612;2023-03-23T12:07:41;18.00;75.90
29321;DHT22;16323;51.130;6.612;2023-03-23T12:10:23;18.00;76.50
29321;DHT22;16323;51.130;6.612;2023-03-23T12:13:03;18.00;76.10
29321;DHT22;16323;51.130;6.612;2023-03-23T12:15:38;18.00;76.10
29321;DHT22;16323;51.130;6.612;2023-03-23T12:18:14;18.00;76.10
29321;DHT22;16323;51.130;6.612;2023-03-23T12:20:55;18.00;76.10
29321;DHT22;16323;51.130;6.612;2023-03-23T12:23:25;18.00;76.30
29321;DHT22;16323;51.130;6.612;2023-03-23T12:26:08;18.00;76.10
29321;DHT22;16323;51.130;6.612;2023-03-23T12:28:48;18.00;76.40
29321;DHT22;16323;51.130;6.612;2023-03-23T12:31:23;17.90;76.30
29321;DHT22;16323;51.130;6.612;2023-03-23T12:33:58;17.90;75.90
29321;DHT22;16323;51.130;6.612;2023-03-23T12:36:38;17.90;76.10
29321;DHT22;16323;51.130;6.612;2023-03-23T12:39:45;17.90;76.20
29321;DHT22;16323;51.130;6.612;2023-03-23T12:42:21;17.90;76.40
29321;DHT22;16323;51.130;6.612;2023-03-23T12:44:53;18.20;76.70
29321;DHT22;16323;51.130;6.612;2023-03-23T12:47:32;18.10;76.60
29321;DHT22;16323;51.130;6.612;2023-03-23T12:50:07;17.90;76.40
29321;DHT22;16323;51.130;6.612;2023-03-23T12:52:42;18.00;76.50
29321;DHT22;16323;51.130;6.612;2023-03-23T12:55:17;18.00;76.50
29321;DHT22;16323;51.130;6.612;2023-03-23T12:57:51;18.00;76.50
29321;DHT22;16323;51.130;6.612;2023-03-23T13:00:25;18.00;76.50
29321;DHT22;16323;51.130;6.612;2023-03-23T13:02:56;18.00;76.50
29321;DHT22;16323;51.130;6.612;2023-03-23T13:05:34;18.00;76.50
29321;DHT22;16323;51.130;6.612;2023-03-23T13:08:06;18.00;76.50
29321;DHT22;16323;51.130;6.612;2023-03-23T13:10:39;18.00;76.50
29321;DHT22;16323;51.130;6.612;2023-03-23T13:13:12;18.00;76.50
29321;DHT22;16323;51.130;6.612;2023-03-23T13:15:48;18.00;76.50
29321;DHT22;16323;51.130;6.612;2023-03-23T13:18:23;18.00;76.50
29321;DHT22;16323;51.130;6.612;2023-03-23T13:20:56;18.00;76.50
29321;DHT22;16323;51.130;6.612;2023-03-23T13:23:28;18.00;76.50
29321;DHT22;16323;51.130;6.612;2023-03-23T13:25:59;18.00;76.50
29321;DHT22;16323;51.130;6.612;2023-03-23T13:28:28;17.90;76.40
29321;DHT22;16323;51.130;6.612;2023-03-23T13:31:04;17.90;76.40
29321;DHT22;16323;51.130;6.612;2023-03-23T13:33:38;17.90;76.50
29321;DHT22;16323;51.130;6.612;2023-03-23T13:36:08;17.90;76.40
29321;DHT22;16323;51.130;6.612;2023-03-23T13:38:37;17.90;76.40
29321;DHT22;16323;51.130;6.612;2023-03-23T13:41:10;17.90;76.40
29321;DHT22;16323;51.130;6.612;2023-03-23T13:43:40;18.00;76.50
29321;DHT22;16323;51.130;6.612;2023-03-23T13:46:22;18.00;76.50
29321;DHT22;16323;51.130;6.612;2023-03-23T13:49:02;18.00;76.50
29321;DHT22;16323;51.130;6.612;2023-03-23T13:51:35;18.80;77.20
29321;DHT22;16323;51.130;6.612;2023-03-23T13:54:19;18.00;76.50
29321;DHT22;16323;51.130;6.612;2023-03-23T13:56:54;18.00;76.50
29321;DHT22;16323;51.130;6.612;2023-03-23T13:59:33;18.00;76.50
29321;DHT22;16323;51.130;6.612;2023-03-23T14:02:34;18.00;76.50
29321;DHT22;16323;51.130;6.612;2023-03-23T14:05:10;18.00;76.50
29321;DHT22;16323;51.130;6.612;2023-03-23T14:07:53;18.00;76.50
29321;DHT22;16323;51.130;6.612;2023-03-23T14:10:21;18.00;76.50
29321;DHT22;16323;51.130;6.612;2023-03-23T14:12:50;18.00;77.50
29321;DHT22;16323;51.130;6.612;2023-03-23T14:15:19;18.00;76.50
29321;DHT22;16323;51.130;6.612;2023-03-23T14:17:47;18.00;76.60
29321;DHT22;16323;51.130;6.612;2023-03-23T14:20:24;18.00;76.50
29321;DHT22;16323;51.130;6.612;2023-03-23T14:22:54;18.00;76.60
29321;DHT22;16323;51.130;6.612;2023-03-23T14:25:22;18.00;76.50
29321;DHT22;16323;51.130;6.612;2023-03-23T14:27:53;18.00;76.50
29321;DHT22;16323;51.130;6.612;2023-03-23T14:30:21;18.00;76.50
29321;DHT22;16323;51.130;6.612;2023-03-23T14:32:52;18.00;76.50
29321;DHT22;16323;51.130;6.612;2023-03-23T14:35:23;18.00;76.50
29321;DHT22;16323;51.130;6.612;2023-03-23T14:37:50;18.00;76.50
29321;DHT22;16323;51.130;6.612;2023-03-23T14:40:18;18.00;76.50
29321;DHT22;16323;51.130;6.612;2023-03-23T14:42:45;17.90;76.40
29321;DHT22;16323;51.130;6.612;2023-03-23T14:45:15;17.90;76.40
29321;DHT22;16323;51.130;6.612;2023-03-23T14:47:45;17.90;76.40
29321;DHT22;16323;51.130;6.612;2023-03-23T14:50:26;17.90;76.40
29321;DHT22;16323;51.130;6.612;2023-03-23T14:52:57;17.90;76.40
29321;DHT22;16323;51.130;6.612;2023-03-23T14:55:25;17.90;76.40
29321;DHT22;16323;51.130;6.612;2023-03-23T14:57:54;17.90;76.40
29321;DHT22;16323;51.130;6.612;2023-03-23T15:00:24;17.90;76.40
29321;DHT22;16323;51.130;6.612;2023-03-23T15:02:55;17.90;76.40
29321;DHT22;16323;51.130;6.612;2023-03-23T15:05:27;17.90;76.40
29321;DHT22;16323;51.130;6.612;2023-03-23T15:07:59;17.80;76.30
29321;DHT22;16323;51.130;6.612;2023-03-23T15:10:27;17.80;76.30
29321;DHT22;16323;51.130;6.612;2023-03-23T15:12:54;17.80;76.30
29321;DHT22;16323;51.130;6.612;2023-03-23T15:15:25;17.80;76.30
29321;DHT22;16323;51.130;6.612;2023-03-23T15:17:52;17.80;76.30
29321;DHT22;16323;51.130;6.612;2023-03-23T15:20:22;17.80;76.30
29321;DHT22;16323;51.130;6.612;2023-03-23T15:22:52;17.80;76.30
29321;DHT22;16323;51.130;6.612;2023-03-23T15:25:20;17.80;76.30
29321;DHT22;16323;51.130;6.612;2023-03-23T15:27:53;17.80;76.30
29321;DHT22;16323;51.130;6.612;2023-03-23T15:30:32;17.80;76.30
29321;DHT22;16323;51.130;6.612;2023-03-23T15:33:04;17.80;76.30
29321;DHT22;16323;51.130;6.612;2023-03-23T15:35:34;17.80;76.30
29321;DHT22;16323;51.130;6.612;2023-03-23T15:38:05;17.80;76.40
29321;DHT22;16323;51.130;6.612;2023-03-23T15:40:34;17.80;76.30
29321;DHT22;16323;51.130;6.612;2023-03-23T15:43:06;17.90;76.40
29321;DHT22;16323;51.130;6.612;2023-03-23T15:45:33;17.90;76.40
29321;DHT22;16323;51.130;6.612;2023-03-23T15:48:10;17.90;76.40
29321;DHT22;16323;51.130;6.612;2023-03-23T15:50:39;17.90;76.40
29321;DHT22;16323;51.130;6.612;2023-03-23T15:53:19;17.90;76.40
29321;DHT22;16323;51.130;6.612;2023-03-23T15:55:46;17.90;76.40
29321;DHT22;16323;51.130;6.612;2023-03-23T15:58:13;17.90;76.40